sensor_id;sensor_type;location;lat;lon;timestamp;temperature;humidity
6758;DHT22;3416;53.074;8.822;2022-10-10T00:01:14;10.10;99.90
6758;DHT22;3416;53.074;8.822;2022-10-10T00:03:41;10.10;99.90
6758;DHT22;3416;53.074;8.822;2022-10-10T00:06:10;10.10;99.90
6758;DHT22;3416;53.074;8.822;2022-10-10T00:08:38;10.10;99.90
6758;DHT22;3416;53.074;8.822;2022-10-10T00:11:05;10.10;99.90
6758;DHT22;3416;53.074;8.822;2022-10-10T00:13:33;10.00;99.90
6758;DHT22;3416;53.074;8.822;2022-10-10T00:16:01;10.00;99.90
6758;DHT22;3416;53.074;8.822;2022-10-10T00:18:28;9.90;99.90
6758;DHT22;3416;53.074;8.822;2022-10-10T00:20:55;9.90;99.90
6758;DHT22;3416;53.074;8.822;2022-10-10T00:23:24;9.90;99.90
6758;DHT22;3416;53.074;8.822;2022-10-10T00:25:51;9.80;99.90
6758;DHT22;3416;53.074;8.822;2022-10-10T00:28:18;9.80;99.90
6758;DHT22;3416;53.074;8.822;2022-10-10T00:30:45;9.80;99.90
6758;DHT22;3416;53.074;8.822;2022-10-10T00:33:14;9.80;99.90
6758;DHT22;3416;53.074;8.822;2022-10-10T00:35:42;9.80;99.90
6758;DHT22;3416;53.074;8.822;2022-10-10T00:38:10;9.70;99.90
6758;DHT22;3416;53.074;8.822;2022-10-10T00:40:52;9.60;99.90
6758;DHT22;3416;53.074;8.822;2022-10-10T00:43:20;9.60;99.90
6758;DHT22;3416;53.074;8.822;2022-10-10T00:45:51;9.60;99.90
6758;DHT22;3416;53.074;8.822;2022-10-10T00:48:20;9.60;99.90
6758;DHT22;3416;53.074;8.822;2022-10-10T00:50:53;9.60;99.90
6758;DHT22;3416;53.074;8.822;2022-10-10T00:53:22;9.60;99.90
6758;DHT22;3416;53.074;8.822;2022-10-10T00:55:52;9.60;99.90
6758;DHT22;3416;53.074;8.822;2022-10-10T00:58:20;9.60;99.90
6758;DHT22;3416;53.074;8.822;2022-10-10T01:00:47;9.50;99.90
6758;DHT22;3416;53.074;8.822;2022-10-10T01:03:14;9.60;99.90
6758;DHT22;3416;53.074;8.822;2022-10-10T01:05:41;9.60;99.90
6758;DHT22;3416;53.074;8.822;2022-10-10T01:08:09;9.50;99.90
6758;DHT22;3416;53.074;8.822;2022-10-10T01:10:49;9.60;99.90
6758;DHT22;3416;53.074;8.822;2022-10-10T01:13:27;9.60;99.90
6758;DHT22;3416;53.074;8.822;2022-10-10T01:16:02;9.50;99.90
6758;DHT22;3416;53.074;8.822;2022-10-10T01:18:38;9.50;99.90
6758;DHT22;3416;53.074;8.822;2022-10-10T01:21:16;9.50;99.90
6758;DHT22;3416;53.074;8.822;2022-10-10T01:27:17;9.50;99.90
6758;DHT22;3416;53.074;8.822;2022-10-10T01:29:50;9.40;99.90
6758;DHT22;3416;53.074;8.822;2022-10-10T01:32:24;9.40;99.90
6758;DHT22;3416;53.074;8.822;2022-10-10T01:35:00;9.40;99.90
6758;DHT22;3416;53.074;8.822;2022-10-10T01:37:38;9.40;99.90
6758;DHT22;3416;53.074;8.822;2022-10-10T01:40:10;9.30;99.90
6758;DHT22;3416;53.074;8.822;2022-10-10T01:42:43;9.30;99.90
6758;DHT22;3416;53.074;8.822;2022-10-10T01:45:15;9.30;99.90
6758;DHT22;3416;53.074;8.822;2022-10-10T01:47:42;9.30;99.90
6758;DHT22;3416;53.074;8.822;2022-10-10T01:50:11;9.30;99.90
6758;DHT22;3416;53.074;8.822;2022-10-10T01:52:46;9.30;99.90
6758;DHT22;3416;53.074;8.822;2022-10-10T01:55:27;9.30;99.90
6758;DHT22;3416;53.074;8.822;2022-10-10T01:58:05;9.20;99.90
6758;DHT22;3416;53.074;8.822;2022-10-10T02:00:44;9.20;99.90
6758;DHT22;3416;53.074;8.822;2022-10-10T02:03:18;9.20;99.90
6758;DHT22;3416;53.074;8.822;2022-10-10T02:05:50;9.20;99.90
6758;DHT22;3416;53.074;8.822;2022-10-10T02:08:22;9.20;99.90
6758;DHT22;3416;53.074;8.822;2022-10-10T02:10:55;9.10;99.90
6758;DHT22;3416;53.074;8.822;2022-10-10T02:13:29;9.10;99.90
6758;DHT22;3416;53.074;8.822;2022-10-10T02:16:00;9.10;99.90
6758;DHT22;3416;53.074;8.822;2022-10-10T02:18:30;9.10;99.90
6758;DHT22;3416;53.074;8.822;2022-10-10T02:21:00;9.00;99.90
6758;DHT22;3416;53.074;8.822;2022-10-10T02:23:29;9.00;99.90
6758;DHT22;3416;53.074;8.822;2022-10-10T02:25:57;9.00;99.90
6758;DHT22;3416;53.074;8.822;2022-10-10T02:28:28;9.00;99.90
6758;DHT22;3416;53.074;8.822;2022-10-10T02:31:02;8.90;99.90
6758;DHT22;3416;53.074;8.822;2022-10-10T02:33:35;8.90;99.90
6758;DHT22;3416;53.074;8.822;2022-10-10T02:36:04;8.90;99.90
6758;DHT22;3416;53.074;8.822;2022-10-10T02:38:32;8.90;99.90
6758;DHT22;3416;53.074;8.822;2022-10-10T02:41:00;8.90;99.90
6758;DHT22;3416;53.074;8.822;2022-10-10T02:43:30;8.80;99.90
6758;DHT22;3416;53.074;8.822;2022-10-10T02:46:01;8.80;99.90
6758;DHT22;3416;53.074;8.822;2022-10-10T02:48:30;8.80;99.90
6758;DHT22;3416;53.074;8.822;2022-10-10T02:50:58;8.80;99.90
6758;DHT22;3416;53.074;8.822;2022-10-10T02:53:26;8.80;99.90
6758;DHT22;3416;53.074;8.822;2022-10-10T02:55:58;8.80;99.90
6758;DHT22;3416;53.074;8.822;2022-10-10T02:58:26;8.80;99.90
6758;DHT22;3416;53.074;8.822;2022-10-10T03:00:55;8.80;99.90
6758;DHT22;3416;53.074;8.822;2022-10-10T03:03:23;8.70;99.90
6758;DHT22;3416;53.074;8.822;2022-10-10T03:05:51;8.70;99.90
6758;DHT22;3416;53.074;8.822;2022-10-10T03:08:18;8.70;99.90
6758;DHT22;3416;53.074;8.822;2022-10-10T03:10:54;8.70;99.90
6758;DHT22;3416;53.074;8.822;2022-10-10T03:13:21;8.60;99.90
6758;DHT22;3416;53.074;8.822;2022-10-10T03:15:48;8.60;99.90
6758;DHT22;3416;53.074;8.822;2022-10-10T03:18:15;8.60;99.90
6758;DHT22;3416;53.074;8.822;2022-10-10T03:20:45;8.50;99.90
6758;DHT22;3416;53.074;8.822;2022-10-10T03:23:12;8.50;99.90
6758;DHT22;3416;53.074;8.822;2022-10-10T03:25:40;8.50;99.90
6758;DHT22;3416;53.074;8.822;2022-10-10T03:28:08;8.50;99.90
6758;DHT22;3416;53.074;8.822;2022-10-10T03:30:37;8.50;99.90
6758;DHT22;3416;53.074;8.822;2022-10-10T03:33:04;8.50;99.90
6758;DHT22;3416;53.074;8.822;2022-10-10T03:35:33;8.50;99.90
6758;DHT22;3416;53.074;8.822;2022-10-10T03:38:02;8.40;99.90
6758;DHT22;3416;53.074;8.822;2022-10-10T03:40:29;8.40;99.90
6758;DHT22;3416;53.074;8.822;2022-10-10T03:42:56;8.40;99.90
6758;DHT22;3416;53.074;8.822;2022-10-10T03:45:25;8.40;99.90
6758;DHT22;3416;53.074;8.822;2022-10-10T03:47:52;8.30;99.90
6758;DHT22;3416;53.074;8.822;2022-10-10T03:50:19;8.30;99.90
6758;DHT22;3416;53.074;8.822;2022-10-10T03:52:46;8.30;99.90
6758;DHT22;3416;53.074;8.822;2022-10-10T03:55:14;8.40;99.90
6758;DHT22;3416;53.074;8.822;2022-10-10T03:57:42;8.20;99.90
6758;DHT22;3416;53.074;8.822;2022-10-10T04:00:10;8.30;99.90
6758;DHT22;3416;53.074;8.822;2022-10-10T04:02:37;8.30;99.90
6758;DHT22;3416;53.074;8.822;2022-10-10T04:05:05;8.30;99.90
6758;DHT22;3416;53.074;8.822;2022-10-10T04:07:33;8.20;99.90
6758;DHT22;3416;53.074;8.822;2022-10-10T04:09:59;8.20;99.90
6758;DHT22;3416;53.074;8.822;2022-10-10T04:12:28;8.20;99.90
6758;DHT22;3416;53.074;8.822;2022-10-10T04:14:55;8.10;99.90
6758;DHT22;3416;53.074;8.822;2022-10-10T04:17:22;8.10;99.90
6758;DHT22;3416;53.074;8.822;2022-10-10T04:19:48;8.10;99.90
6758;DHT22;3416;53.074;8.822;2022-10-10T04:22:15;8.10;99.90
6758;DHT22;3416;53.074;8.822;2022-10-10T04:24:42;8.00;99.90
6758;DHT22;3416;53.074;8.822;2022-10-10T04:27:09;8.10;99.90
6758;DHT22;3416;53.074;8.822;2022-10-10T04:29:38;8.10;99.90
6758;DHT22;3416;53.074;8.822;2022-10-10T04:32:05;8.10;99.90
6758;DHT22;3416;53.074;8.822;2022-10-10T04:34:32;8.00;99.90
6758;DHT22;3416;53.074;8.822;2022-10-10T04:36:59;8.00;99.90
6758;DHT22;3416;53.074;8.822;2022-10-10T04:39:26;8.00;99.90
6758;DHT22;3416;53.074;8.822;2022-10-10T04:41:53;8.00;99.90
6758;DHT22;3416;53.074;8.822;2022-10-10T04:44:20;8.00;99.90
6758;DHT22;3416;53.074;8.822;2022-10-10T04:46:49;7.90;99.90
6758;DHT22;3416;53.074;8.822;2022-10-10T04:49:16;8.10;99.90
6758;DHT22;3416;53.074;8.822;2022-10-10T04:51:44;8.00;99.90
6758;DHT22;3416;53.074;8.822;2022-10-10T04:54:11;7.90;99.90
6758;DHT22;3416;53.074;8.822;2022-10-10T04:56:39;7.90;99.90
6758;DHT22;3416;53.074;8.822;2022-10-10T04:59:07;7.90;99.90
6758;DHT22;3416;53.074;8.822;2022-10-10T05:01:34;7.90;99.90
6758;DHT22;3416;53.074;8.822;2022-10-10T05:04:02;7.90;99.90
6758;DHT22;3416;53.074;8.822;2022-10-10T05:06:29;7.80;99.90
6758;DHT22;3416;53.074;8.822;2022-10-10T05:08:56;7.80;99.90
6758;DHT22;3416;53.074;8.822;2022-10-10T05:11:23;7.80;99.90
6758;DHT22;3416;53.074;8.822;2022-10-10T05:13:50;7.80;99.90
6758;DHT22;3416;53.074;8.822;2022-10-10T05:16:17;7.70;99.90
6758;DHT22;3416;53.074;8.822;2022-10-10T05:18:44;7.70;99.90
6758;DHT22;3416;53.074;8.822;2022-10-10T05:21:12;7.80;99.90
6758;DHT22;3416;53.074;8.822;2022-10-10T05:23:40;7.70;99.90
6758;DHT22;3416;53.074;8.822;2022-10-10T05:26:08;7.80;99.90
6758;DHT22;3416;53.074;8.822;2022-10-10T05:28:36;7.70;99.90
6758;DHT22;3416;53.074;8.822;2022-10-10T05:31:04;7.80;99.90
6758;DHT22;3416;53.074;8.822;2022-10-10T05:33:32;7.80;99.90
6758;DHT22;3416;53.074;8.822;2022-10-10T05:36:03;7.70;99.90
6758;DHT22;3416;53.074;8.822;2022-10-10T05:38:33;7.80;99.90
6758;DHT22;3416;53.074;8.822;2022-10-10T05:41:00;7.80;99.90
6758;DHT22;3416;53.074;8.822;2022-10-10T05:43:28;7.70;99.90
6758;DHT22;3416;53.074;8.822;2022-10-10T05:45:55;7.70;99.90
6758;DHT22;3416;53.074;8.822;2022-10-10T05:48:22;7.70;99.90
6758;DHT22;3416;53.074;8.822;2022-10-10T05:50:51;7.70;99.90
6758;DHT22;3416;53.074;8.822;2022-10-10T05:53:20;7.70;99.90
6758;DHT22;3416;53.074;8.822;2022-10-10T05:55:49;7.70;99.90
6758;DHT22;3416;53.074;8.822;2022-10-10T05:58:16;7.80;99.90
6758;DHT22;3416;53.074;8.822;2022-10-10T06:00:44;7.70;99.90
6758;DHT22;3416;53.074;8.822;2022-10-10T06:03:12;7.80;99.90
6758;DHT22;3416;53.074;8.822;2022-10-10T06:05:42;7.80;99.90
6758;DHT22;3416;53.074;8.822;2022-10-10T06:08:10;7.90;99.90
6758;DHT22;3416;53.074;8.822;2022-10-10T06:10:39;7.90;99.90
6758;DHT22;3416;53.074;8.822;2022-10-10T06:13:10;7.90;99.90
6758;DHT22;3416;53.074;8.822;2022-10-10T06:15:37;8.00;99.90
6758;DHT22;3416;53.074;8.822;2022-10-10T06:18:05;8.10;99.90
6758;DHT22;3416;53.074;8.822;2022-10-10T06:20:33;8.10;99.90
6758;DHT22;3416;53.074;8.822;2022-10-10T06:23:00;8.10;99.90
6758;DHT22;3416;53.074;8.822;2022-10-10T06:25:27;8.10;99.90
6758;DHT22;3416;53.074;8.822;2022-10-10T06:27:55;8.20;99.90
6758;DHT22;3416;53.074;8.822;2022-10-10T06:30:25;8.10;99.90
6758;DHT22;3416;53.074;8.822;2022-10-10T06:32:52;8.30;99.90
6758;DHT22;3416;53.074;8.822;2022-10-10T06:35:19;8.40;99.90
6758;DHT22;3416;53.074;8.822;2022-10-10T06:37:46;8.50;99.90
6758;DHT22;3416;53.074;8.822;2022-10-10T06:40:13;8.90;99.90
6758;DHT22;3416;53.074;8.822;2022-10-10T06:42:40;9.60;99.90
6758;DHT22;3416;53.074;8.822;2022-10-10T06:45:08;10.50;99.90
6758;DHT22;3416;53.074;8.822;2022-10-10T06:47:36;11.30;99.90
6758;DHT22;3416;53.074;8.822;2022-10-10T06:50:04;12.40;99.90
6758;DHT22;3416;53.074;8.822;2022-10-10T06:52:31;13.40;99.90
6758;DHT22;3416;53.074;8.822;2022-10-10T06:54:58;14.30;99.90
6758;DHT22;3416;53.074;8.822;2022-10-10T06:57:26;15.10;99.90
6758;DHT22;3416;53.074;8.822;2022-10-10T06:59:53;15.90;99.90
6758;DHT22;3416;53.074;8.822;2022-10-10T07:02:20;16.80;99.00
6758;DHT22;3416;53.074;8.822;2022-10-10T07:04:49;17.10;95.90
6758;DHT22;3416;53.074;8.822;2022-10-10T07:07:16;17.80;94.30
6758;DHT22;3416;53.074;8.822;2022-10-10T07:09:44;18.20;92.70
6758;DHT22;3416;53.074;8.822;2022-10-10T07:12:11;18.40;92.40
6758;DHT22;3416;53.074;8.822;2022-10-10T07:14:38;18.50;91.70
6758;DHT22;3416;53.074;8.822;2022-10-10T07:17:05;18.30;91.30
6758;DHT22;3416;53.074;8.822;2022-10-10T07:19:32;18.70;91.80
6758;DHT22;3416;53.074;8.822;2022-10-10T07:22:02;18.50;90.90
6758;DHT22;3416;53.074;8.822;2022-10-10T07:24:29;18.60;90.90
6758;DHT22;3416;53.074;8.822;2022-10-10T07:26:56;19.00;90.90
6758;DHT22;3416;53.074;8.822;2022-10-10T07:29:23;19.70;89.40
6758;DHT22;3416;53.074;8.822;2022-10-10T07:31:52;20.20;87.90
6758;DHT22;3416;53.074;8.822;2022-10-10T07:34:19;20.70;86.50
6758;DHT22;3416;53.074;8.822;2022-10-10T07:36:46;20.90;84.40
6758;DHT22;3416;53.074;8.822;2022-10-10T07:39:19;20.90;83.90
6758;DHT22;3416;53.074;8.822;2022-10-10T07:41:46;21.00;82.80
6758;DHT22;3416;53.074;8.822;2022-10-10T07:44:13;21.20;82.70
6758;DHT22;3416;53.074;8.822;2022-10-10T07:46:40;21.00;82.80
6758;DHT22;3416;53.074;8.822;2022-10-10T07:49:07;20.70;83.10
6758;DHT22;3416;53.074;8.822;2022-10-10T07:51:34;20.00;85.20
6758;DHT22;3416;53.074;8.822;2022-10-10T07:54:02;21.00;84.90
6758;DHT22;3416;53.074;8.822;2022-10-10T07:56:31;21.70;82.50
6758;DHT22;3416;53.074;8.822;2022-10-10T07:58:58;22.10;80.90
6758;DHT22;3416;53.074;8.822;2022-10-10T08:01:25;22.30;80.20
6758;DHT22;3416;53.074;8.822;2022-10-10T08:03:54;22.50;79.30
6758;DHT22;3416;53.074;8.822;2022-10-10T08:06:21;22.70;79.30
6758;DHT22;3416;53.074;8.822;2022-10-10T08:08:48;22.90;77.90
6758;DHT22;3416;53.074;8.822;2022-10-10T08:11:15;23.20;78.00
6758;DHT22;3416;53.074;8.822;2022-10-10T08:13:44;23.40;77.70
6758;DHT22;3416;53.074;8.822;2022-10-10T08:16:11;23.70;76.20
6758;DHT22;3416;53.074;8.822;2022-10-10T08:18:39;23.70;76.20
6758;DHT22;3416;53.074;8.822;2022-10-10T08:21:07;23.30;76.00
6758;DHT22;3416;53.074;8.822;2022-10-10T08:23:35;23.00;77.20
6758;DHT22;3416;53.074;8.822;2022-10-10T08:26:04;23.20;77.30
6758;DHT22;3416;53.074;8.822;2022-10-10T08:28:40;23.40;76.70
6758;DHT22;3416;53.074;8.822;2022-10-10T08:31:10;23.10;76.60
6758;DHT22;3416;53.074;8.822;2022-10-10T08:33:37;22.90;77.90
6758;DHT22;3416;53.074;8.822;2022-10-10T08:36:05;22.90;78.10
6758;DHT22;3416;53.074;8.822;2022-10-10T08:38:32;22.70;78.70
6758;DHT22;3416;53.074;8.822;2022-10-10T08:41:00;22.70;79.30
6758;DHT22;3416;53.074;8.822;2022-10-10T08:43:36;22.10;79.40
6758;DHT22;3416;53.074;8.822;2022-10-10T08:46:14;22.20;80.30
6758;DHT22;3416;53.074;8.822;2022-10-10T08:48:43;22.60;80.20
6758;DHT22;3416;53.074;8.822;2022-10-10T08:51:16;23.00;79.40
6758;DHT22;3416;53.074;8.822;2022-10-10T08:53:48;23.40;78.30
6758;DHT22;3416;53.074;8.822;2022-10-10T08:56:24;23.60;78.30
6758;DHT22;3416;53.074;8.822;2022-10-10T08:58:56;24.20;77.40
6758;DHT22;3416;53.074;8.822;2022-10-10T09:01:31;24.50;76.80
6758;DHT22;3416;53.074;8.822;2022-10-10T09:04:00;24.40;76.50
6758;DHT22;3416;53.074;8.822;2022-10-10T09:06:38;23.90;77.20
6758;DHT22;3416;53.074;8.822;2022-10-10T09:09:14;23.80;78.40
6758;DHT22;3416;53.074;8.822;2022-10-10T09:11:53;23.80;78.50
6758;DHT22;3416;53.074;8.822;2022-10-10T09:14:29;23.70;79.00
6758;DHT22;3416;53.074;8.822;2022-10-10T09:17:03;23.60;78.30
6758;DHT22;3416;53.074;8.822;2022-10-10T09:19:49;23.80;79.30
6758;DHT22;3416;53.074;8.822;2022-10-10T09:22:22;24.20;79.50
6758;DHT22;3416;53.074;8.822;2022-10-10T09:24:54;23.50;78.60
6758;DHT22;3416;53.074;8.822;2022-10-10T09:27:26;23.80;79.40
6758;DHT22;3416;53.074;8.822;2022-10-10T09:29:59;23.90;79.40
6758;DHT22;3416;53.074;8.822;2022-10-10T09:32:33;24.00;78.90
6758;DHT22;3416;53.074;8.822;2022-10-10T09:35:13;24.00;78.90
6758;DHT22;3416;53.074;8.822;2022-10-10T09:37:42;23.90;78.20
6758;DHT22;3416;53.074;8.822;2022-10-10T09:40:16;24.10;78.60
6758;DHT22;3416;53.074;8.822;2022-10-10T09:42:44;24.00;78.80
6758;DHT22;3416;53.074;8.822;2022-10-10T09:45:18;24.30;79.50
6758;DHT22;3416;53.074;8.822;2022-10-10T09:47:49;24.00;79.60
6758;DHT22;3416;53.074;8.822;2022-10-10T09:50:17;23.70;80.00
6758;DHT22;3416;53.074;8.822;2022-10-10T09:52:45;23.00;81.80
6758;DHT22;3416;53.074;8.822;2022-10-10T09:55:22;22.40;82.80
6758;DHT22;3416;53.074;8.822;2022-10-10T09:57:51;21.50;84.60
6758;DHT22;3416;53.074;8.822;2022-10-10T10:00:33;20.90;87.90
6758;DHT22;3416;53.074;8.822;2022-10-10T10:03:10;20.70;89.40
6758;DHT22;3416;53.074;8.822;2022-10-10T10:05:38;21.00;89.10
6758;DHT22;3416;53.074;8.822;2022-10-10T10:08:17;21.30;88.60
6758;DHT22;3416;53.074;8.822;2022-10-10T10:10:44;21.60;88.60
6758;DHT22;3416;53.074;8.822;2022-10-10T10:13:12;21.70;87.70
6758;DHT22;3416;53.074;8.822;2022-10-10T10:15:47;21.60;88.50
6758;DHT22;3416;53.074;8.822;2022-10-10T10:18:22;21.10;89.90
6758;DHT22;3416;53.074;8.822;2022-10-10T10:20:53;20.90;90.50
6758;DHT22;3416;53.074;8.822;2022-10-10T10:23:22;20.70;90.50
6758;DHT22;3416;53.074;8.822;2022-10-10T10:25:57;20.20;91.20
6758;DHT22;3416;53.074;8.822;2022-10-10T10:28:25;19.70;92.30
6758;DHT22;3416;53.074;8.822;2022-10-10T10:30:54;19.20;93.60
6758;DHT22;3416;53.074;8.822;2022-10-10T10:33:37;19.00;94.10
6758;DHT22;3416;53.074;8.822;2022-10-10T10:36:24;18.90;94.90
6758;DHT22;3416;53.074;8.822;2022-10-10T10:38:58;19.10;94.80
6758;DHT22;3416;53.074;8.822;2022-10-10T10:41:33;19.20;95.00
6758;DHT22;3416;53.074;8.822;2022-10-10T10:44:21;18.90;95.20
6758;DHT22;3416;53.074;8.822;2022-10-10T10:46:57;18.80;95.90
6758;DHT22;3416;53.074;8.822;2022-10-10T10:49:35;19.10;95.70
6758;DHT22;3416;53.074;8.822;2022-10-10T10:52:28;19.20;95.50
6758;DHT22;3416;53.074;8.822;2022-10-10T10:55:08;19.20;95.40
6758;DHT22;3416;53.074;8.822;2022-10-10T10:57:46;19.00;95.50
6758;DHT22;3416;53.074;8.822;2022-10-10T11:00:18;18.90;95.70
6758;DHT22;3416;53.074;8.822;2022-10-10T11:02:56;18.70;96.10
6758;DHT22;3416;53.074;8.822;2022-10-10T11:05:36;18.90;96.80
6758;DHT22;3416;53.074;8.822;2022-10-10T11:08:23;18.90;96.50
6758;DHT22;3416;53.074;8.822;2022-10-10T11:11:01;18.90;96.50
6758;DHT22;3416;53.074;8.822;2022-10-10T11:13:36;18.80;96.70
6758;DHT22;3416;53.074;8.822;2022-10-10T11:16:10;18.70;97.00
6758;DHT22;3416;53.074;8.822;2022-10-10T11:18:41;18.60;97.20
6758;DHT22;3416;53.074;8.822;2022-10-10T11:21:16;18.60;96.90
6758;DHT22;3416;53.074;8.822;2022-10-10T11:23:48;18.50;97.30
6758;DHT22;3416;53.074;8.822;2022-10-10T11:26:21;18.50;98.00
6758;DHT22;3416;53.074;8.822;2022-10-10T11:28:52;18.80;97.20
6758;DHT22;3416;53.074;8.822;2022-10-10T11:31:23;18.80;96.90
6758;DHT22;3416;53.074;8.822;2022-10-10T11:33:55;18.80;97.00
6758;DHT22;3416;53.074;8.822;2022-10-10T11:36:27;18.70;97.00
6758;DHT22;3416;53.074;8.822;2022-10-10T11:38:58;18.70;97.70
6758;DHT22;3416;53.074;8.822;2022-10-10T11:41:31;18.70;97.70
6758;DHT22;3416;53.074;8.822;2022-10-10T11:44:03;18.60;97.40
6758;DHT22;3416;53.074;8.822;2022-10-10T11:46:35;18.60;97.50
6758;DHT22;3416;53.074;8.822;2022-10-10T11:49:11;18.60;97.50
6758;DHT22;3416;53.074;8.822;2022-10-10T11:52:09;18.50;97.70
6758;DHT22;3416;53.074;8.822;2022-10-10T11:54:41;18.40;98.00
6758;DHT22;3416;53.074;8.822;2022-10-10T11:57:14;18.50;98.10
6758;DHT22;3416;53.074;8.822;2022-10-10T11:59:45;18.60;97.70
6758;DHT22;3416;53.074;8.822;2022-10-10T12:02:18;18.70;97.50
6758;DHT22;3416;53.074;8.822;2022-10-10T12:04:46;18.70;97.30
6758;DHT22;3416;53.074;8.822;2022-10-10T12:07:19;18.70;97.00
6758;DHT22;3416;53.074;8.822;2022-10-10T12:09:51;18.50;96.80
6758;DHT22;3416;53.074;8.822;2022-10-10T12:12:22;18.60;97.10
6758;DHT22;3416;53.074;8.822;2022-10-10T12:14:52;18.70;97.10
6758;DHT22;3416;53.074;8.822;2022-10-10T12:17:24;18.50;96.70
6758;DHT22;3416;53.074;8.822;2022-10-10T12:19:54;18.50;96.90
6758;DHT22;3416;53.074;8.822;2022-10-10T12:22:25;18.60;96.70
6758;DHT22;3416;53.074;8.822;2022-10-10T12:25:20;18.70;96.40
6758;DHT22;3416;53.074;8.822;2022-10-10T12:28:02;18.80;96.30
6758;DHT22;3416;53.074;8.822;2022-10-10T12:30:30;18.80;96.30
6758;DHT22;3416;53.074;8.822;2022-10-10T12:32:57;18.80;95.90
6758;DHT22;3416;53.074;8.822;2022-10-10T12:35:42;18.70;95.50
6758;DHT22;3416;53.074;8.822;2022-10-10T12:38:16;18.70;95.50
6758;DHT22;3416;53.074;8.822;2022-10-10T12:41:03;18.50;95.40
6758;DHT22;3416;53.074;8.822;2022-10-10T12:43:40;18.50;95.50
6758;DHT22;3416;53.074;8.822;2022-10-10T12:46:18;18.60;95.50
6758;DHT22;3416;53.074;8.822;2022-10-10T12:49:00;18.70;95.60
6758;DHT22;3416;53.074;8.822;2022-10-10T12:51:28;18.70;95.30
6758;DHT22;3416;53.074;8.822;2022-10-10T12:53:59;18.60;95.50
6758;DHT22;3416;53.074;8.822;2022-10-10T12:56:37;18.80;95.60
6758;DHT22;3416;53.074;8.822;2022-10-10T12:59:06;19.00;95.70
6758;DHT22;3416;53.074;8.822;2022-10-10T13:01:42;19.20;95.20
6758;DHT22;3416;53.074;8.822;2022-10-10T13:04:09;19.20;94.60
6758;DHT22;3416;53.074;8.822;2022-10-10T13:06:41;19.00;94.60
6758;DHT22;3416;53.074;8.822;2022-10-10T13:09:16;18.90;94.60
6758;DHT22;3416;53.074;8.822;2022-10-10T13:11:51;18.80;94.80
6758;DHT22;3416;53.074;8.822;2022-10-10T13:14:19;18.60;94.70
6758;DHT22;3416;53.074;8.822;2022-10-10T13:16:46;18.50;95.20
6758;DHT22;3416;53.074;8.822;2022-10-10T13:19:18;18.50;95.40
6758;DHT22;3416;53.074;8.822;2022-10-10T13:21:46;18.60;95.40
6758;DHT22;3416;53.074;8.822;2022-10-10T13:24:16;18.50;95.40
6758;DHT22;3416;53.074;8.822;2022-10-10T13:26:45;18.50;95.50
6758;DHT22;3416;53.074;8.822;2022-10-10T13:29:23;18.50;95.70
6758;DHT22;3416;53.074;8.822;2022-10-10T13:31:53;18.60;95.70
6758;DHT22;3416;53.074;8.822;2022-10-10T13:34:23;18.60;95.10
6758;DHT22;3416;53.074;8.822;2022-10-10T13:36:52;18.70;95.40
6758;DHT22;3416;53.074;8.822;2022-10-10T13:39:22;18.70;95.30
6758;DHT22;3416;53.074;8.822;2022-10-10T13:41:50;18.60;95.30
6758;DHT22;3416;53.074;8.822;2022-10-10T13:44:21;18.70;95.60
6758;DHT22;3416;53.074;8.822;2022-10-10T13:46:49;18.60;95.50
6758;DHT22;3416;53.074;8.822;2022-10-10T13:49:23;18.60;95.50
6758;DHT22;3416;53.074;8.822;2022-10-10T13:52:01;18.50;95.60
6758;DHT22;3416;53.074;8.822;2022-10-10T13:54:40;18.60;95.80
6758;DHT22;3416;53.074;8.822;2022-10-10T13:57:15;18.50;94.90
6758;DHT22;3416;53.074;8.822;2022-10-10T13:59:43;18.60;95.00
6758;DHT22;3416;53.074;8.822;2022-10-10T14:02:13;18.60;95.50
6758;DHT22;3416;53.074;8.822;2022-10-10T14:04:46;18.50;95.90
6758;DHT22;3416;53.074;8.822;2022-10-10T14:07:22;18.40;96.20
6758;DHT22;3416;53.074;8.822;2022-10-10T14:09:53;18.40;96.50
6758;DHT22;3416;53.074;8.822;2022-10-10T14:12:25;18.40;97.00
6758;DHT22;3416;53.074;8.822;2022-10-10T14:14:55;18.30;96.80
6758;DHT22;3416;53.074;8.822;2022-10-10T14:17:23;18.10;97.10
6758;DHT22;3416;53.074;8.822;2022-10-10T14:19:50;18.00;97.40
6758;DHT22;3416;53.074;8.822;2022-10-10T14:22:17;18.00;97.70
6758;DHT22;3416;53.074;8.822;2022-10-10T14:24:44;17.80;98.10
6758;DHT22;3416;53.074;8.822;2022-10-10T14:27:20;17.80;98.30
6758;DHT22;3416;53.074;8.822;2022-10-10T14:29:48;17.70;98.50
6758;DHT22;3416;53.074;8.822;2022-10-10T14:32:15;17.70;98.70
6758;DHT22;3416;53.074;8.822;2022-10-10T14:34:42;17.70;99.20
6758;DHT22;3416;53.074;8.822;2022-10-10T14:37:16;17.70;99.30
6758;DHT22;3416;53.074;8.822;2022-10-10T14:39:44;17.60;99.40
6758;DHT22;3416;53.074;8.822;2022-10-10T14:42:12;17.60;99.50
6758;DHT22;3416;53.074;8.822;2022-10-10T14:44:41;17.60;99.90
6758;DHT22;3416;53.074;8.822;2022-10-10T14:47:14;17.60;99.90
6758;DHT22;3416;53.074;8.822;2022-10-10T14:49:41;17.60;99.60
6758;DHT22;3416;53.074;8.822;2022-10-10T14:52:08;17.50;99.40
6758;DHT22;3416;53.074;8.822;2022-10-10T14:54:35;17.50;99.90
6758;DHT22;3416;53.074;8.822;2022-10-10T14:57:02;17.40;99.90
6758;DHT22;3416;53.074;8.822;2022-10-10T14:59:29;17.40;99.90
6758;DHT22;3416;53.074;8.822;2022-10-10T15:01:58;17.40;99.90
6758;DHT22;3416;53.074;8.822;2022-10-10T15:04:25;17.30;99.90
6758;DHT22;3416;53.074;8.822;2022-10-10T15:06:51;17.20;99.90
6758;DHT22;3416;53.074;8.822;2022-10-10T15:09:18;17.10;99.90
6758;DHT22;3416;53.074;8.822;2022-10-10T15:11:45;17.10;99.90
6758;DHT22;3416;53.074;8.822;2022-10-10T15:14:12;16.90;99.90
6758;DHT22;3416;53.074;8.822;2022-10-10T15:16:39;16.90;99.90
6758;DHT22;3416;53.074;8.822;2022-10-10T15:19:07;17.00;99.90
6758;DHT22;3416;53.074;8.822;2022-10-10T15:21:34;16.80;99.90
6758;DHT22;3416;53.074;8.822;2022-10-10T15:24:01;16.70;99.90
6758;DHT22;3416;53.074;8.822;2022-10-10T15:26:30;16.50;99.90
6758;DHT22;3416;53.074;8.822;2022-10-10T15:28:57;16.40;99.90
6758;DHT22;3416;53.074;8.822;2022-10-10T15:31:26;16.20;99.90
6758;DHT22;3416;53.074;8.822;2022-10-10T15:33:54;16.10;99.90
6758;DHT22;3416;53.074;8.822;2022-10-10T15:36:23;16.00;99.90
6758;DHT22;3416;53.074;8.822;2022-10-10T15:38:53;15.90;99.90
6758;DHT22;3416;53.074;8.822;2022-10-10T15:41:20;15.70;99.90
6758;DHT22;3416;53.074;8.822;2022-10-10T15:43:48;15.50;99.90
6758;DHT22;3416;53.074;8.822;2022-10-10T15:46:17;15.60;99.90
6758;DHT22;3416;53.074;8.822;2022-10-10T15:48:44;15.50;99.90
6758;DHT22;3416;53.074;8.822;2022-10-10T15:51:11;15.40;99.90
6758;DHT22;3416;53.074;8.822;2022-10-10T15:53:40;15.30;99.90
6758;DHT22;3416;53.074;8.822;2022-10-10T15:56:08;15.10;99.90
6758;DHT22;3416;53.074;8.822;2022-10-10T15:58:36;15.10;99.90
6758;DHT22;3416;53.074;8.822;2022-10-10T16:01:11;15.00;99.90
6758;DHT22;3416;53.074;8.822;2022-10-10T16:03:39;14.90;99.90
6758;DHT22;3416;53.074;8.822;2022-10-10T16:06:06;14.70;99.90
6758;DHT22;3416;53.074;8.822;2022-10-10T16:08:33;14.60;99.90
6758;DHT22;3416;53.074;8.822;2022-10-10T16:11:07;14.50;99.90
6758;DHT22;3416;53.074;8.822;2022-10-10T16:13:36;14.50;99.90
6758;DHT22;3416;53.074;8.822;2022-10-10T16:16:06;14.40;99.90
6758;DHT22;3416;53.074;8.822;2022-10-10T16:18:34;14.30;99.90
6758;DHT22;3416;53.074;8.822;2022-10-10T16:21:03;14.30;99.90
6758;DHT22;3416;53.074;8.822;2022-10-10T16:23:30;14.30;99.90
6758;DHT22;3416;53.074;8.822;2022-10-10T16:26:01;14.20;99.90
6758;DHT22;3416;53.074;8.822;2022-10-10T16:28:29;14.20;99.90
6758;DHT22;3416;53.074;8.822;2022-10-10T16:30:56;14.20;99.90